Portada
METAR-TAF:

METAR-TAF

Aeropuertos :

Aeropuerto Internacional de Nador

Nador, Marruecos

latitud: 34-59-20N, longitud: 003-01-42W, altitud: 175 m

Observación

El informe se hizo hace 35 minutos, a las 04:00 UTC
Viento 7 kt del sur-suroeste
Temperatura 9°C
Humedad 81%
Presión 1021 hPa
Visibilidad 10 km o más
Escasas nubes a una altura de 3100 ft

METAR: GMMW 040400Z 21007KT 9999 FEW031 09/06 Q1021 NOSIG

Hora: 05:35 (04:35 UTC)

Pronóstico

El informe se hizo hace 5 horas y 35 minutos, a las 23:00 UTC
Pronóstico válido del 04 a las 00 UTC al 05 a las 06 UTC
Viento 10 kt del oeste
Visibilidad 10 km o más
Nubes dispersas a una altura de 3000 ft

TAF: GMMW 032300Z 0400/0506 28010KT 9999 SCT030

Observaciones y pronósticos meteorológicos de más de 4000 aeropuertos (mensajes METAR y TAF).

Los puntos amarillos y rojos representan las estaciones disponibles.

Ponga el ratón en el punto deseado para ver el nombre de la estación.

Haga clic para ver las observaciones y los pronósticos meteorológicos.

Para cambiar el mapa : haga clic en los botones verdes con una cruz de color negro para hacer un zoom, en el botón verde con un guión para alejar o en las flechas verdes para mapas adyacentes.


METAR-TAF: